Time;durP1;ratioP1;P1;durP2;ratioP2;P2;SDS_P1;SDS_P2;PMS_P1;PMS_P2;Temp;Humidity;BMP_temperature;BMP_pressure;BME280_temperature;BME280_humidity;BME280_pressure;Samples;Min_cycle;Max_cycle;Signal;HPM_P1;HPM_P2
2022/08/13 00:02:19;;;;;;;26.15;14.03;;;;;;;19.12;100.00;99122.40;2238585;78;21007;-74
2022/08/13 00:05:23;;;;;;;24.10;12.30;;;;;;;19.20;100.00;99123.84;2231189;79;20988;-67
2022/08/13 00:08:25;;;;;;;25.08;12.43;;;;;;;19.25;100.00;99118.12;2202542;80;21024;-73
2022/08/13 00:14:31;;;;;;;24.43;11.83;;;;;;;19.37;100.00;99114.30;2224339;79;20988;-73
2022/08/13 00:17:33;;;;;;;22.42;11.50;;;;;;;19.39;100.00;99116.34;2220160;78;21056;-73
2022/08/13 00:20:34;;;;;;;22.95;11.10;;;;;;;19.43;100.00;99114.22;2249661;78;21542;-75
2022/08/13 00:23:36;;;;;;;23.27;11.12;;;;;;;19.47;100.00;99110.30;2225865;78;20965;-81
2022/08/13 00:26:37;;;;;;;23.32;10.40;;;;;;;19.55;100.00;99105.58;2252290;78;21495;-76
2022/08/13 00:29:38;;;;;;;24.35;10.75;;;;;;;19.51;100.00;99102.37;2227020;78;20981;-71
2022/08/13 00:32:40;;;;;;;23.00;10.60;;;;;;;19.44;100.00;99099.95;2228480;78;21091;-79
2022/08/13 00:35:41;;;;;;;23.55;11.05;;;;;;;19.47;100.00;99097.00;2228392;78;21012;-76
2022/08/13 00:38:44;;;;;;;23.20;10.50;;;;;;;19.46;100.00;99093.98;2265681;78;20952;-76
2022/08/13 00:41:46;;;;;;;22.25;10.43;;;;;;;19.48;100.00;99087.19;2245871;77;21052;-75
2022/08/13 00:44:47;;;;;;;23.10;11.03;;;;;;;19.40;100.00;99085.26;2246040;78;21521;-76
2022/08/13 00:50:53;;;;;;;24.47;9.80;;;;;;;19.38;100.00;99080.09;2187900;80;21484;-77
2022/08/13 00:53:54;;;;;;;23.27;10.23;;;;;;;19.35;100.00;99085.70;2218995;79;21115;-71
2022/08/13 00:56:57;;;;;;;23.25;10.43;;;;;;;19.33;100.00;99082.83;2220889;79;21027;-77
2022/08/13 00:59:58;;;;;;;22.13;9.90;;;;;;;19.26;100.00;99079.89;2227844;78;21028;-76
2022/08/13 01:03:00;;;;;;;22.77;10.25;;;;;;;19.21;100.00;99078.17;2239193;79;21585;-79
2022/08/13 01:06:01;;;;;;;24.40;11.05;;;;;;;19.26;100.00;99075.90;2233803;78;21025;-79
2022/08/13 01:09:03;;;;;;;34.20;20.35;;;;;;;19.27;100.00;99075.43;2235459;78;21546;-74
2022/08/13 01:12:05;;;;;;;23.55;10.35;;;;;;;19.24;100.00;99075.22;2262327;77;20982;-78
2022/08/13 01:15:07;;;;;;;23.27;10.82;;;;;;;19.16;100.00;99069.27;2241069;78;21576;-76
2022/08/13 01:18:08;;;;;;;23.47;11.70;;;;;;;19.24;100.00;99060.59;2220178;79;20985;-79
2022/08/13 01:21:10;;;;;;;21.90;10.55;;;;;;;19.29;100.00;99050.34;2235494;79;21550;-75
2022/08/13 01:24:11;;;;;;;23.70;11.88;;;;;;;19.28;100.00;99049.16;2223320;79;20981;-79
2022/08/13 01:27:13;;;;;;;23.60;10.53;;;;;;;19.30;100.00;99045.89;2223429;78;20992;-73
2022/08/13 01:30:14;;;;;;;23.57;10.55;;;;;;;19.24;100.00;99040.66;2235958;79;20997;-76
2022/08/13 01:33:17;;;;;;;24.92;11.30;;;;;;;19.27;100.00;99039.03;2208866;79;20977;-75
2022/08/13 01:36:19;;;;;;;23.87;10.32;;;;;;;19.28;100.00;99030.55;2241608;78;21134;-79
2022/08/13 01:39:21;;;;;;;24.50;10.98;;;;;;;19.25;100.00;99029.52;2218056;79;21522;-75
2022/08/13 01:42:23;;;;;;;24.20;11.55;;;;;;;19.32;100.00;99026.16;2212203;79;20992;-79
2022/08/13 01:45:24;;;;;;;23.73;11.00;;;;;;;19.41;100.00;99035.55;2213196;79;21016;-78
2022/08/13 01:51:29;;;;;;;24.15;11.15;;;;;;;19.30;100.00;99024.11;2215147;79;20989;-70
2022/08/13 01:54:30;;;;;;;24.27;12.37;;;;;;;19.36;100.00;99021.37;2227491;79;21064;-78
2022/08/13 01:57:33;;;;;;;23.77;11.93;;;;;;;19.34;100.00;99021.52;2235031;78;21417;-72
2022/08/13 02:00:36;;;;;;;23.02;10.98;;;;;;;19.32;100.00;99024.83;2221134;78;21001;-81
2022/08/13 02:03:38;;;;;;;23.30;11.78;;;;;;;19.27;100.00;99024.41;2247879;78;21000;-74
2022/08/13 02:06:40;;;;;;;25.25;12.25;;;;;;;19.24;100.00;99023.37;2221937;79;21052;-77
2022/08/13 02:09:43;;;;;;;23.98;10.88;;;;;;;19.14;100.00;99031.87;2246372;79;20989;-78
2022/08/13 02:12:46;;;;;;;23.50;11.55;;;;;;;19.04;100.00;99024.73;2228720;79;20980;-77
2022/08/13 02:15:47;;;;;;;24.37;12.43;;;;;;;19.02;100.00;99025.37;2210208;80;21625;-67
2022/08/13 02:18:52;;;;;;;27.32;12.28;;;;;;;18.98;100.00;99023.98;2218641;79;21041;-63
2022/08/13 02:21:52;;;;;;;25.05;12.15;;;;;;;19.03;100.00;99027.53;2191133;78;21033;-79
2022/08/13 02:24:54;;;;;;;25.57;12.20;;;;;;;19.02;100.00;99020.06;2209603;79;20998;-81
2022/08/13 02:27:56;;;;;;;24.87;12.15;;;;;;;19.02;100.00;99020.53;2213985;79;20981;-76
2022/08/13 02:30:57;;;;;;;24.98;12.37;;;;;;;18.95;100.00;99019.43;2214185;79;21036;-74
2022/08/13 02:33:59;;;;;;;26.00;11.97;;;;;;;19.04;100.00;99022.58;2220840;79;20980;-79
2022/08/13 02:37:00;;;;;;;24.15;12.47;;;;;;;19.06;100.00;99018.45;2216898;79;21060;-69
2022/08/13 02:40:04;;;;;;;24.25;11.93;;;;;;;19.06;100.00;99011.30;2216610;79;21478;-80
2022/08/13 02:43:05;;;;;;;26.55;12.25;;;;;;;19.12;100.00;99008.09;2209989;77;21024;-80
2022/08/13 02:46:07;;;;;;;25.37;12.37;;;;;;;19.15;100.00;99005.61;2224244;79;20988;-80
2022/08/13 02:49:08;;;;;;;24.60;12.13;;;;;;;19.14;100.00;99002.13;2216538;79;20992;-80
2022/08/13 02:52:10;;;;;;;23.70;12.50;;;;;;;19.14;100.00;99002.63;2254988;77;21025;-78
2022/08/13 02:55:11;;;;;;;25.45;12.78;;;;;;;19.23;100.00;98997.75;2251515;77;21474;-77
2022/08/13 02:58:13;;;;;;;24.70;12.73;;;;;;;19.31;100.00;98991.23;2250706;77;21004;-81
2022/08/13 03:01:14;;;;;;;24.90;12.63;;;;;;;19.41;100.00;99000.50;2252852;78;21000;-82
2022/08/13 03:04:16;;;;;;;24.98;12.82;;;;;;;19.26;100.00;98996.13;2257944;78;20989;-82
2022/08/13 03:07:19;;;;;;;24.60;12.43;;;;;;;19.21;100.00;98998.41;2248284;78;20934;-82
2022/08/13 03:10:20;;;;;;;25.05;12.78;;;;;;;19.14;100.00;98993.32;2282555;77;21004;-77
2022/08/13 03:13:22;;;;;;;24.80;12.43;;;;;;;19.02;100.00;98986.84;2185237;80;21495;-78
2022/08/13 03:16:24;;;;;;;25.12;13.08;;;;;;;19.10;100.00;98991.42;2203907;80;21012;-79
2022/08/13 03:19:26;;;;;;;25.52;13.40;;;;;;;19.08;100.00;98985.90;2190870;80;21078;-79
2022/08/13 03:22:28;;;;;;;26.05;13.08;;;;;;;19.03;100.00;98987.66;2205113;80;21024;-76
2022/08/13 03:25:30;;;;;;;25.23;12.78;;;;;;;18.99;100.00;98988.45;2201798;80;21579;-78
2022/08/13 03:28:32;;;;;;;23.80;12.58;;;;;;;19.04;100.00;98990.17;2193408;80;20997;-78
2022/08/13 03:31:35;;;;;;;24.85;13.18;;;;;;;19.05;100.00;98988.37;2186547;81;21001;-78
2022/08/13 03:34:36;;;;;;;28.87;13.62;;;;;;;19.07;100.00;98985.07;2231753;79;20993;-79
2022/08/13 03:37:38;;;;;;;26.17;13.90;;;;;;;18.94;100.00;98989.88;2191901;80;21013;-78
2022/08/13 03:43:43;;;;;;;25.05;13.22;;;;;;;18.94;100.00;98984.55;2169742;81;21009;-78
2022/08/13 03:46:47;;;;;;;;;;;;;;;18.94;100.00;98982.72;2193010;80;21009;-77
2022/08/13 03:49:48;;;;;;;26.37;13.00;;;;;;;18.96;100.00;98988.72;2169582;80;20399;-77
2022/08/13 03:52:50;;;;;;;26.10;13.45;;;;;;;18.96;100.00;98988.72;2198707;80;21067;-78
2022/08/13 03:55:51;;;;;;;;;;;;;;;18.96;100.00;98988.72;2206759;80;21514;-69
2022/08/13 03:58:54;;;;;;;25.60;13.32;;;;;;;18.93;100.00;98990.34;2195822;80;20121;-77
2022/08/13 04:01:56;;;;;;;28.50;14.53;;;;;;;18.96;100.00;98994.03;2200201;80;21135;-77
2022/08/13 04:04:58;;;;;;;28.10;14.98;;;;;;;18.95;100.00;98999.02;2198516;80;21819;-83
2022/08/13 04:07:59;;;;;;;29.87;16.25;;;;;;;18.92;100.00;98996.66;2205015;80;21052;-82
2022/08/13 04:11:00;;;;;;;30.77;15.65;;;;;;;18.93;100.00;99002.30;2199232;80;21041;-83
2022/08/13 04:14:03;;;;;;;30.23;16.73;;;;;;;18.97;100.00;98998.88;2279869;77;20949;-82
2022/08/13 04:17:05;;;;;;;34.00;17.60;;;;;;;19.01;100.00;98997.62;2279169;77;21099;-81
2022/08/13 04:20:07;;;;;;;31.42;16.97;;;;;;;19.01;100.00;98992.30;2189841;80;21063;-82
2022/08/13 04:23:09;;;;;;;33.05;17.27;;;;;;;19.10;100.00;98994.08;2252541;78;21491;-80
2022/08/13 04:26:13;;;;;;;30.35;16.48;;;;;;;19.15;100.00;98997.63;2275469;77;20997;-78
2022/08/13 04:29:14;;;;;;;32.58;17.32;;;;;;;19.16;100.00;98998.81;2254635;77;20997;-81
2022/08/13 04:32:15;;;;;;;32.35;16.30;;;;;;;19.12;100.00;98994.80;2188731;80;21002;-81
2022/08/13 04:35:16;;;;;;;34.30;18.55;;;;;;;19.15;100.00;98995.83;2281340;77;21481;-81
2022/08/13 04:38:18;;;;;;;36.40;19.23;;;;;;;19.29;100.00;98998.49;2187869;81;22100;-82
2022/08/13 04:41:20;;;;;;;36.33;19.50;;;;;;;19.21;100.00;98997.90;2276425;77;21098;-82
2022/08/13 04:44:22;;;;;;;38.42;20.10;;;;;;;19.26;100.00;99003.28;2188442;80;21089;-82
2022/08/13 04:47:24;;;;;;;40.40;21.27;;;;;;;19.20;100.00;98996.72;2205156;80;21219;-81
2022/08/13 04:50:25;;;;;;;38.50;21.90;;;;;;;19.20;100.00;99003.37;2191737;80;21047;-79
2022/08/13 04:53:27;;;;;;;39.83;20.43;;;;;;;19.21;100.00;99001.06;2279450;77;20976;-81
2022/08/13 04:56:29;;;;;;;40.63;21.45;;;;;;;19.19;100.00;98997.69;2184172;80;21515;-79
2022/08/13 04:59:31;;;;;;;43.45;22.05;;;;;;;19.19;100.00;99006.53;2206820;80;21119;-76
2022/08/13 05:02:32;;;;;;;40.38;22.17;;;;;;;19.22;100.00;99002.72;2199855;80;21083;-82
2022/08/13 05:05:35;;;;;;;40.15;21.65;;;;;;;19.21;100.00;99006.38;2199603;80;21086;-75
2022/08/13 05:08:39;;;;;;;42.00;21.85;;;;;;;19.24;100.00;99003.90;2199292;80;21025;-80
2022/08/13 05:11:40;;;;;;;38.48;20.95;;;;;;;19.23;100.00;99003.58;2198921;80;21064;-81
2022/08/13 05:14:41;;;;;;;43.98;22.15;;;;;;;19.24;100.00;98999.44;2197016;80;21070;-79
2022/08/13 05:17:43;;;;;;;41.42;21.57;;;;;;;19.24;100.00;99000.77;2281930;77;20993;-80
2022/08/13 05:20:44;;;;;;;43.28;22.58;;;;;;;19.35;100.00;98995.75;2280250;78;20950;-79
2022/08/13 05:23:46;;;;;;;42.58;21.97;;;;;;;19.44;100.00;99000.20;2185676;80;21021;-79
2022/08/13 05:26:48;;;;;;;43.00;22.02;;;;;;;19.53;100.00;99005.14;2278699;77;20985;-79
2022/08/13 05:29:50;;;;;;;42.90;23.57;;;;;;;19.64;100.00;99002.77;2187820;80;20998;-72
2022/08/13 05:32:56;;;;;;;41.25;20.88;;;;;;;19.62;100.00;99000.76;2256926;77;21031;-79
2022/08/13 05:35:57;;;;;;;40.35;21.20;;;;;;;19.60;100.00;98999.58;2161777;80;21001;-79
2022/08/13 05:38:58;;;;;;;41.63;22.13;;;;;;;19.61;100.00;99000.41;2204027;80;21040;-79
2022/08/13 05:42:01;;;;;;;43.28;22.22;;;;;;;19.61;100.00;99003.06;2196545;80;21204;-78
2022/08/13 05:45:02;;;;;;;42.48;22.90;;;;;;;19.72;100.00;99005.53;2189100;80;21008;-79
2022/08/13 05:48:04;;;;;;;42.15;21.25;;;;;;;19.81;100.00;98999.38;2197441;81;21056;-80
2022/08/13 05:51:08;;;;;;;41.20;21.12;;;;;;;19.85;100.00;98997.23;2188855;80;21115;-79
2022/08/13 05:54:10;;;;;;;42.15;21.82;;;;;;;19.88;100.00;98997.79;2189087;81;21001;-81
2022/08/13 05:57:12;;;;;;;37.65;19.40;;;;;;;19.95;100.00;99000.67;2282391;77;20962;-81
2022/08/13 06:06:21;;;;;;;35.48;18.23;;;;;;;20.05;100.00;98995.30;2259769;77;21133;-82
2022/08/13 06:09:23;;;;;;;34.70;17.10;;;;;;;20.04;100.00;98989.14;2190860;80;21049;-81
2022/08/13 06:12:25;;;;;;;33.90;16.62;;;;;;;20.07;100.00;98978.69;2282354;77;21534;-81
2022/08/13 06:15:27;;;;;;;;;;;;;;;20.19;100.00;98981.45;2183084;79;20997;-74
2022/08/13 06:18:29;;;;;;;33.15;15.95;;;;;;;20.26;100.00;98989.69;2183162;80;20138;-82
2022/08/13 06:21:31;;;;;;;30.57;16.57;;;;;;;20.33;100.00;98996.55;2207727;80;21016;-82
2022/08/13 06:24:32;;;;;;;32.93;16.55;;;;;;;20.37;100.00;98981.48;2205157;80;21008;-83
2022/08/13 06:27:33;;;;;;;30.82;14.93;;;;;;;20.48;100.00;98984.38;2196157;80;21116;-82
2022/08/13 06:30:36;;;;;;;30.88;15.65;;;;;;;20.51;100.00;98983.25;2197800;80;20981;-83
2022/08/13 06:33:38;;;;;;;30.40;14.93;;;;;;;20.68;100.00;98983.75;2203191;80;21049;-76
2022/08/13 06:36:40;;;;;;;27.93;14.60;;;;;;;20.79;100.00;98980.48;2280026;77;21016;-82
2022/08/13 06:39:41;;;;;;;29.90;16.17;;;;;;;20.81;100.00;98979.86;2282186;78;21573;-82
2022/08/13 06:42:44;;;;;;;31.70;14.95;;;;;;;20.85;100.00;98967.39;2189646;80;21026;-82
2022/08/13 06:45:46;;;;;;;29.48;15.75;;;;;;;21.06;100.00;98971.50;2205860;80;21582;-80
2022/08/13 06:48:48;;;;;;;28.70;14.63;;;;;;;21.06;100.00;98975.03;2187930;81;21060;-78
2022/08/13 06:51:49;;;;;;;27.73;14.40;;;;;;;21.01;100.00;98974.65;2188759;81;21017;-73
2022/08/13 06:54:51;;;;;;;30.08;14.53;;;;;;;20.92;100.00;98976.94;2278810;77;20975;-80
2022/08/13 06:57:52;;;;;;;29.32;14.30;;;;;;;20.86;100.00;98970.88;2188778;81;21044;-81
2022/08/13 07:00:55;;;;;;;32.30;16.07;;;;;;;20.85;100.00;98970.05;2206234;80;21049;-82
2022/08/13 07:03:56;;;;;;;30.20;15.93;;;;;;;20.97;100.00;98967.95;2204821;80;21480;-83
2022/08/13 07:06:58;;;;;;;32.93;16.02;;;;;;;21.09;100.00;98976.04;2204949;80;21001;-73
2022/08/13 07:10:00;;;;;;;32.10;14.90;;;;;;;21.12;100.00;98978.89;2203735;80;21579;-78
2022/08/13 07:13:02;;;;;;;31.97;17.02;;;;;;;21.31;100.00;98975.16;2205143;80;21061;-76
2022/08/13 07:16:03;;;;;;;;;;;;;;;21.50;100.00;98975.91;2208101;80;21551;-81
2022/08/13 07:19:05;;;;;;;29.80;16.00;;;;;;;21.57;100.00;98967.64;2206602;80;20131;-80
2022/08/13 07:22:07;;;;;;;30.85;16.10;;;;;;;21.51;100.00;98973.12;2189917;81;21567;-83
2022/08/13 07:25:08;;;;;;;30.20;15.23;;;;;;;21.60;100.00;98966.80;2200162;80;20992;-83
2022/08/13 07:28:09;;;;;;;32.88;16.70;;;;;;;21.52;100.00;98965.94;2192073;81;21503;-83
2022/08/13 07:31:11;;;;;;;28.47;15.05;;;;;;;21.51;100.00;98974.93;2175674;80;20987;-82
2022/08/13 07:34:12;;;;;;;31.20;16.27;;;;;;;21.58;100.00;98969.32;2201709;80;20989;-83
2022/08/13 07:37:14;;;;;;;26.87;15.08;;;;;;;21.74;100.00;98976.55;2199598;80;21004;-77
2022/08/13 07:40:15;;;;;;;29.12;15.63;;;;;;;21.81;100.00;98980.23;2205856;80;21047;-79
2022/08/13 07:43:18;;;;;;;30.72;16.02;;;;;;;21.78;100.00;98980.57;2193689;80;21499;-79
2022/08/13 07:46:20;;;;;;;30.62;16.20;;;;;;;22.05;100.00;98977.28;2277492;77;21538;-83
2022/08/13 07:49:22;;;;;;;28.15;15.60;;;;;;;22.09;100.00;98978.63;2200146;79;20972;-80
2022/08/13 07:52:24;;;;;;;25.02;12.05;;;;;;;21.96;100.00;98980.44;2190366;80;21498;-81
2022/08/13 07:55:25;;;;;;;29.12;13.30;;;;;;;21.94;100.00;98981.11;2194056;81;20969;-79
2022/08/13 07:58:29;;;;;;;25.85;11.97;;;;;;;21.94;100.00;98987.28;2204615;80;21520;-82
2022/08/13 08:01:30;;;;;;;25.02;11.63;;;;;;;22.16;100.00;98980.98;2201434;79;21586;-76
2022/08/13 08:04:32;;;;;;;24.50;11.70;;;;;;;22.23;100.00;98983.33;2235614;78;21023;-80
2022/08/13 08:07:37;;;;;;;27.58;11.30;;;;;;;22.37;100.00;98987.23;2254530;78;21490;-78
2022/08/13 08:10:37;;;;;;;23.90;12.05;;;;;;;22.56;100.00;98989.25;2225066;78;21494;-81
2022/08/13 08:13:39;;;;;;;25.43;11.28;;;;;;;22.48;100.00;98984.72;2245579;78;21012;-78
2022/08/13 08:16:44;;;;;;;;;;;;;;;22.51;100.00;98998.25;2286015;77;20988;-80
2022/08/13 08:19:46;;;;;;;24.90;12.47;;;;;;;22.45;100.00;98981.04;2234754;78;20096;-65
2022/08/13 08:22:47;;;;;;;24.10;11.55;;;;;;;22.52;100.00;98991.41;2266836;77;21028;-77
2022/08/13 08:25:49;;;;;;;26.90;12.63;;;;;;;22.57;100.00;98998.91;2278455;77;21499;-75
2022/08/13 08:28:51;;;;;;;25.32;12.73;;;;;;;22.58;100.00;98992.58;2281900;77;21059;-75
2022/08/13 08:31:52;;;;;;;;;;;;;;;22.46;100.00;98989.41;2285835;77;21704;-73
2022/08/13 08:34:54;;;;;;;24.72;12.78;;;;;;;22.37;100.00;98991.72;2284454;77;20090;-81
2022/08/13 08:44:02;;;;;;;24.85;12.03;;;;;;;22.34;100.00;98987.56;2264714;77;21113;-81
2022/08/13 08:47:04;;;;;;;;;;;;;;;22.39;100.00;98993.23;2287042;77;21012;-76
2022/08/13 08:50:09;;;;;;;27.52;13.32;;;;;;;22.34;100.00;98985.38;2284418;77;20104;-76
2022/08/13 08:56:12;;;;;;;22.20;11.30;;;;;;;22.41;100.00;98969.86;2251944;77;21016;-70
2022/08/13 08:59:14;;;;;;;22.52;10.60;;;;;;;22.53;100.00;98965.50;2280817;77;21443;-71
2022/08/13 09:02:16;;;;;;;22.42;10.15;;;;;;;22.67;100.00;98956.84;2281399;77;20985;-71
2022/08/13 09:05:20;;;;;;;25.57;10.58;;;;;;;22.72;100.00;98959.00;2281880;77;22957;-77
2022/08/13 09:08:24;;;;;;;23.18;11.00;;;;;;;22.90;100.00;98953.44;2259403;77;21016;-77
2022/08/13 09:11:24;;;;;;;24.95;10.78;;;;;;;23.09;100.00;98950.92;2257736;77;21029;-80
2022/08/13 09:14:26;;;;;;;22.32;10.25;;;;;;;22.98;100.00;98948.91;2284548;77;20984;-77
2022/08/13 09:17:27;;;;;;;23.05;10.75;;;;;;;22.73;100.00;98945.46;2281023;77;21031;-78
2022/08/13 09:20:30;;;;;;;23.02;10.90;;;;;;;22.61;100.00;98942.78;2282149;77;21021;-77
2022/08/13 09:23:33;;;;;;;23.40;11.05;;;;;;;22.47;100.00;98945.66;2232480;78;21075;-78
2022/08/13 09:26:34;;;;;;;23.12;10.70;;;;;;;22.58;100.00;98933.26;2275559;77;21030;-76
2022/08/13 09:29:36;;;;;;;23.92;11.80;;;;;;;22.72;100.00;98931.75;2281196;77;21004;-79
2022/08/13 09:32:37;;;;;;;23.02;11.97;;;;;;;22.91;100.00;98926.53;2244532;78;21577;-75
2022/08/13 09:35:39;;;;;;;24.52;12.93;;;;;;;23.00;100.00;98928.20;2225598;78;21036;-76
2022/08/13 09:38:42;;;;;;;24.67;12.90;;;;;;;23.32;100.00;98926.96;2248717;79;21613;-72
2022/08/13 09:41:49;;;;;;;25.62;12.47;;;;;;;23.73;100.00;98924.06;2242276;79;21043;-76
2022/08/13 09:44:47;;;;;;;25.77;12.00;;;;;;;24.15;100.00;98921.50;2264892;77;21068;-77
2022/08/13 09:47:48;;;;;;;21.48;11.08;;;;;;;24.46;100.00;98921.09;2281974;77;21024;-76
2022/08/13 09:50:52;;;;;;;22.40;10.65;;;;;;;24.46;100.00;98907.16;2284971;77;21012;-76
2022/08/13 09:53:53;;;;;;;23.20;10.60;;;;;;;24.42;100.00;98910.39;2212127;79;21009;-76
2022/08/13 09:56:58;;;;;;;21.75;10.78;;;;;;;24.60;100.00;98903.41;2229284;78;21075;-77
2022/08/13 09:59:57;;;;;;;24.40;11.30;;;;;;;24.73;100.00;98900.92;2260608;77;20957;-77
2022/08/13 10:02:59;;;;;;;;;;;;;;;24.85;100.00;98906.66;2286599;77;21027;-78
2022/08/13 10:06:00;;;;;;;23.47;11.57;;;;;;;24.95;100.00;98897.00;2279473;77;20096;-79
2022/08/13 10:09:02;;;;;;;22.27;11.55;;;;;;;24.87;100.00;98892.58;2245308;78;21110;-79
2022/08/13 10:12:04;;;;;;;21.85;10.30;;;;;;;24.76;100.00;98894.36;2240069;78;21057;-78
2022/08/13 10:15:06;;;;;;;24.50;10.53;;;;;;;24.92;100.00;98891.50;2247605;78;21637;-78
2022/08/13 10:18:07;;;;;;;21.25;9.68;;;;;;;25.40;100.00;98889.77;2281385;77;21098;-77
2022/08/13 10:21:08;;;;;;;20.85;9.93;;;;;;;26.05;100.00;98880.50;2240660;78;21078;-76
2022/08/13 10:24:10;;;;;;;22.82;9.85;;;;;;;25.94;100.00;98889.33;2253062;79;21002;-75
2022/08/13 10:27:13;;;;;;;20.70;9.43;;;;;;;25.71;100.00;98880.63;2249394;78;21017;-78
2022/08/13 10:30:14;;;;;;;21.25;9.85;;;;;;;25.79;100.00;98885.04;2285573;77;20981;-73
2022/08/13 10:33:16;;;;;;;20.92;9.58;;;;;;;25.82;100.00;98880.66;2282851;77;21110;-77
2022/08/13 10:36:17;;;;;;;;;;;;;;;25.79;100.00;98879.18;2285720;77;21028;-74
2022/08/13 10:39:19;;;;;;;20.90;9.00;;;;;;;25.91;100.00;98876.29;2281001;77;20123;-75
2022/08/13 10:42:21;;;;;;;21.42;9.70;;;;;;;26.08;100.00;98874.73;2284995;77;21507;-78
2022/08/13 10:45:24;;;;;;;22.80;10.50;;;;;;;26.06;100.00;98867.36;2286890;77;20969;-77
2022/08/13 10:48:25;;;;;;;22.67;10.40;;;;;;;26.18;100.00;98868.52;2282162;77;20973;-78
2022/08/13 10:51:27;;;;;;;20.48;9.18;;;;;;;26.20;100.00;98870.48;2285454;77;21027;-77
2022/08/13 10:54:30;;;;;;;19.98;9.13;;;;;;;26.43;100.00;98866.74;2285532;77;21597;-74
2022/08/13 10:57:32;;;;;;;21.40;9.68;;;;;;;26.51;100.00;98861.75;2283131;77;20993;-77
2022/08/13 11:00:34;;;;;;;21.25;9.73;;;;;;;26.55;100.00;98854.44;2243592;79;20966;-75
2022/08/13 11:03:35;;;;;;;21.20;9.20;;;;;;;26.62;100.00;98852.62;2240094;79;20989;-78
2022/08/13 11:06:37;;;;;;;21.57;9.90;;;;;;;26.65;100.00;98854.09;2242773;79;21018;-74
2022/08/13 11:09:39;;;;;;;21.90;10.20;;;;;;;26.48;100.00;98854.05;2239891;79;21016;-72
2022/08/13 11:12:50;;;;;;;22.25;10.00;;;;;;;26.39;100.00;98852.02;2244697;78;21162;-76
2022/08/13 11:15:44;;;;;;;20.88;9.63;;;;;;;26.15;100.00;98850.59;2265480;77;21039;-70
2022/08/13 11:18:46;;;;;;;22.17;9.78;;;;;;;25.81;100.00;98863.69;2282883;77;21004;-76
2022/08/13 11:21:47;;;;;;;21.52;9.53;;;;;;;25.70;100.00;98859.67;2285503;77;21083;-77
2022/08/13 11:24:49;;;;;;;20.92;10.20;;;;;;;25.70;100.00;98855.64;2286006;77;21099;-77
2022/08/13 11:27:51;;;;;;;22.15;9.43;;;;;;;25.76;100.00;98856.73;2281456;77;20989;-81
2022/08/13 11:30:52;;;;;;;22.67;9.63;;;;;;;26.16;100.00;98857.14;2290162;77;21023;-79
2022/08/13 11:33:53;;;;;;;21.33;9.75;;;;;;;26.51;100.00;98868.47;2281711;77;21451;-78
2022/08/13 11:36:55;;;;;;;;;;;;;;;26.55;100.00;98862.50;2289943;77;20997;-79
2022/08/13 11:39:57;;;;;;;21.57;9.88;;;;;;;26.55;100.00;98878.64;2283904;77;20092;-80
2022/08/13 11:42:58;;;;;;;23.12;9.25;;;;;;;26.54;100.00;98866.73;2282293;77;20981;-82
2022/08/13 11:45:59;;;;;;;21.65;9.30;;;;;;;26.41;100.00;98872.31;2283246;77;21573;-75
2022/08/13 11:49:01;;;;;;;19.02;8.38;;;;;;;26.66;100.00;98862.45;2283140;77;20945;-81
2022/08/13 11:52:02;;;;;;;21.35;8.65;;;;;;;26.47;100.00;98868.02;2284757;77;21076;-76
2022/08/13 11:55:04;;;;;;;22.48;9.60;;;;;;;26.30;100.00;98870.16;2284592;77;21009;-72
2022/08/13 11:58:05;;;;;;;;;;;;;;;26.10;100.00;98863.27;2287453;77;20981;-63
2022/08/13 12:01:07;;;;;;;22.25;9.63;;;;;;;26.09;100.00;98871.03;2283856;77;20112;-83
2022/08/13 12:04:09;;;;;;;19.50;8.80;;;;;;;26.11;100.00;98871.13;2285471;77;21046;-84
2022/08/13 12:07:11;;;;;;;23.05;9.10;;;;;;;25.88;100.00;98867.27;2285872;77;21040;-82
2022/08/13 12:10:12;;;;;;;21.12;9.75;;;;;;;25.69;100.00;98874.63;2289346;77;20996;-81
2022/08/13 12:13:14;;;;;;;22.13;9.33;;;;;;;25.52;100.00;98872.16;2280704;77;20996;-73
2022/08/13 12:16:15;;;;;;;;;;;;;;;25.51;100.00;98881.75;2287283;77;21562;-80
2022/08/13 12:19:17;;;;;;;20.37;9.20;;;;;;;25.61;100.00;98882.28;2284844;77;20132;-81
2022/08/13 12:22:19;;;;;;;21.95;10.08;;;;;;;25.57;100.00;98879.64;2285572;77;21803;-69
2022/08/13 12:25:20;;;;;;;22.65;10.08;;;;;;;25.42;100.00;98882.38;2284903;77;21071;-81
2022/08/13 12:28:22;;;;;;;23.50;10.40;;;;;;;25.41;100.00;98876.67;2286214;77;21630;-76
2022/08/13 12:31:24;;;;;;;23.38;10.10;;;;;;;25.51;100.00;98875.86;2285007;77;20980;-79
2022/08/13 12:34:25;;;;;;;22.37;10.25;;;;;;;25.56;100.00;98879.34;2281540;77;21594;-80
2022/08/13 12:37:26;;;;;;;22.93;10.15;;;;;;;25.36;100.00;98881.27;2282213;77;21000;-67
2022/08/13 12:40:28;;;;;;;22.73;10.45;;;;;;;25.22;100.00;98881.58;2284506;77;21035;-74
2022/08/13 12:43:29;;;;;;;24.70;11.63;;;;;;;24.90;100.00;98878.78;2281123;77;20992;-76
2022/08/13 12:46:31;;;;;;;25.95;11.20;;;;;;;24.78;100.00;98885.09;2285746;77;20965;-77
2022/08/13 12:49:32;;;;;;;24.45;11.55;;;;;;;24.56;100.00;98888.15;2276939;77;20954;-77
2022/08/13 12:52:34;;;;;;;25.52;11.93;;;;;;;24.32;100.00;98892.73;2243021;78;20997;-78
2022/08/13 12:55:35;;;;;;;23.85;11.95;;;;;;;24.15;100.00;98889.35;2246103;78;21535;-79
2022/08/13 12:58:36;;;;;;;24.67;11.93;;;;;;;24.12;100.00;98892.39;2235163;79;20994;-81
2022/08/13 13:01:38;;;;;;;24.37;11.75;;;;;;;24.03;100.00;98886.27;2282601;77;21024;-78
2022/08/13 13:04:43;;;;;;;;;;;;;;;23.91;100.00;98886.86;2245766;78;21028;-76
2022/08/13 13:07:43;;;;;;;25.27;12.60;;;;;;;23.78;100.00;98876.19;2213498;78;20102;-79
2022/08/13 13:10:46;;;;;;;22.40;11.50;;;;;;;23.62;100.00;98872.25;2275051;78;21453;-81
2022/08/13 13:13:49;;;;;;;25.35;12.47;;;;;;;23.63;100.00;98873.94;2237736;78;20996;-74
2022/08/13 13:16:51;;;;;;;25.68;12.90;;;;;;;23.65;100.00;98867.40;2283744;77;21019;-73
2022/08/13 13:19:53;;;;;;;27.13;13.60;;;;;;;23.74;100.00;98849.95;2286243;77;21527;-78
2022/08/13 13:22:55;;;;;;;25.15;13.48;;;;;;;23.93;100.00;98845.98;2279436;77;20996;-80
2022/08/13 13:25:57;;;;;;;27.98;14.70;;;;;;;24.24;100.00;98845.05;2281336;77;20938;-81
2022/08/13 13:28:58;;;;;;;24.10;12.70;;;;;;;24.59;100.00;98838.70;2281647;77;20966;-75
2022/08/13 13:32:02;;;;;;;23.60;12.33;;;;;;;24.96;100.00;98832.44;2288551;77;21028;-81
2022/08/13 13:35:03;;;;;;;24.12;12.05;;;;;;;25.29;100.00;98828.52;2258648;77;20989;-81
2022/08/13 13:38:05;;;;;;;23.12;11.85;;;;;;;25.52;100.00;98835.09;2240734;78;21109;-81
2022/08/13 13:41:07;;;;;;;22.75;11.88;;;;;;;25.51;100.00;98833.42;2281700;77;21500;-78
2022/08/13 13:44:09;;;;;;;26.25;10.90;;;;;;;25.49;100.00;98843.53;2287080;77;21044;-81
2022/08/13 13:47:10;;;;;;;23.22;11.48;;;;;;;25.47;100.00;98844.22;2244800;79;20977;-79
2022/08/13 13:50:12;;;;;;;;;;;;;;;25.47;100.00;98835.64;2243610;79;21032;-79
2022/08/13 13:53:15;;;;;;;22.22;10.72;;;;;;;25.73;100.00;98836.94;2235658;79;20110;-79
2022/08/13 13:56:18;;;;;;;23.30;11.30;;;;;;;25.90;100.00;98845.09;2234883;78;21637;-82
2022/08/13 13:59:20;;;;;;;23.90;10.30;;;;;;;25.92;100.00;98840.34;2237632;79;21044;-83
2022/08/13 14:02:22;;;;;;;24.82;11.53;;;;;;;25.93;100.00;98832.61;2287521;77;20980;-81
2022/08/13 14:05:23;;;;;;;22.75;10.58;;;;;;;25.99;100.00;98839.56;2286673;77;21001;-73
2022/08/13 14:08:27;;;;;;;23.65;10.70;;;;;;;26.04;100.00;98831.28;2282729;77;20972;-82
2022/08/13 14:11:31;;;;;;;23.07;10.78;;;;;;;26.34;100.00;98835.14;2284950;77;21021;-65
2022/08/13 14:14:31;;;;;;;21.80;10.08;;;;;;;26.50;100.00;98823.78;2265790;77;21028;-63
2022/08/13 14:17:33;;;;;;;20.60;9.43;;;;;;;26.69;100.00;98823.61;2282559;77;21000;-78
2022/08/13 14:20:35;;;;;;;21.77;10.00;;;;;;;27.23;100.00;98816.62;2283289;77;20957;-77